Time;durP1;ratioP1;P1;durP2;ratioP2;P2;SDS_P1;SDS_P2;PMS_P1;PMS_P2;Temp;Humidity;BMP_temperature;BMP_pressure;BME280_temperature;BME280_humidity;BME280_pressure;Samples;Min_cycle;Max_cycle;Signal;HPM_P1;HPM_P2
2021/05/06 00:10:11;;;;;;;2.23;1.20;;;5.90;99.90;;;;;;5042335;28;20078;-64
2021/05/06 00:32:04;;;;;;;2.23;1.33;;;5.40;99.90;;;;;;5051411;28;20109;-63
2021/05/06 00:34:30;;;;;;;3.33;1.93;;;5.40;99.90;;;;;;5045277;28;20096;-64
2021/05/06 00:36:57;;;;;;;4.87;1.70;;;5.40;99.90;;;;;;5043328;28;20866;-64
2021/05/06 00:39:26;;;;;;;3.30;1.57;;;5.40;99.90;;;;;;5042481;28;20040;-64
2021/05/06 00:59:03;;;;;;;4.37;1.90;;;5.30;99.90;;;;;;5028257;28;20048;-64
2021/05/06 01:04:23;;;;;;;6.90;1.73;;;5.20;99.90;;;;;;5043763;28;20052;-64
2021/05/06 01:07:00;;;;;;;4.75;1.67;;;5.20;99.90;;;;;;5040128;28;20101;-64
2021/05/06 01:09:30;;;;;;;3.53;1.80;;;5.10;99.90;;;;;;5043683;28;20140;-64
2021/05/06 01:11:59;;;;;;;4.00;1.70;;;5.20;99.90;;;;;;5049448;28;20052;-64
2021/05/06 01:14:25;;;;;;;3.83;1.63;;;5.10;99.90;;;;;;5046279;28;20090;-64
2021/05/06 01:16:51;;;;;;;3.73;1.83;;;5.00;99.90;;;;;;5039814;28;20044;-64
2021/05/06 01:19:19;;;;;;;;;;;5.00;99.90;;;;;;5044439;28;20103;-64
2021/05/06 01:21:46;;;;;;;4.50;1.98;;;4.90;99.90;;;;;;5041532;28;19924;-64
2021/05/06 01:24:13;;;;;;;3.97;1.90;;;5.00;99.90;;;;;;5044753;28;20520;-64
2021/05/06 01:26:44;;;;;;;4.07;1.90;;;4.90;99.90;;;;;;5044277;28;21619;-64
2021/05/06 01:29:14;;;;;;;5.83;2.57;;;5.00;99.90;;;;;;5043727;28;20071;-64
2021/05/06 01:31:46;;;;;;;6.43;2.33;;;4.90;99.90;;;;;;5046007;28;20723;-63
2021/05/06 01:34:15;;;;;;;6.03;2.43;;;4.90;99.90;;;;;;5047583;28;20048;-63
2021/05/06 01:36:45;;;;;;;8.33;2.70;;;5.00;99.90;;;;;;5043120;28;20513;-64
2021/05/06 01:42:02;;;;;;;5.77;2.20;;;4.90;99.90;;;;;;5014649;28;20062;-64
2021/05/06 01:44:54;;;;;;;5.30;2.20;;;4.90;99.90;;;;;;5045361;28;20055;-64
2021/05/06 01:47:25;;;;;;;4.57;2.37;;;4.80;99.90;;;;;;5046181;28;20047;-64
2021/05/06 01:58:15;;;;;;;4.67;2.53;;;4.80;99.90;;;;;;5044237;28;20049;-64
2021/05/06 02:00:45;;;;;;;6.85;2.42;;;4.80;99.90;;;;;;5045264;28;20044;-63
2021/05/06 02:03:11;;;;;;;5.03;2.70;;;4.80;99.90;;;;;;5045697;28;20114;-63
2021/05/06 02:05:37;;;;;;;;;;;4.70;99.90;;;;;;5046001;28;20052;-63
2021/05/06 02:08:04;;;;;;;9.57;2.97;;;4.70;99.90;;;;;;5043493;28;20014;-64
2021/05/06 02:10:32;;;;;;;6.97;2.90;;;4.70;99.90;;;;;;5040201;28;20568;-64
2021/05/06 02:12:59;;;;;;;5.93;2.80;;;4.80;99.90;;;;;;5046863;28;20467;-64
2021/05/06 02:15:28;;;;;;;6.63;2.90;;;4.80;99.90;;;;;;5043417;28;20070;-63
2021/05/06 02:17:56;;;;;;;6.37;2.67;;;4.90;99.90;;;;;;5042452;28;20113;-64
2021/05/06 02:20:23;;;;;;;5.63;2.50;;;4.90;99.90;;;;;;5041532;28;20041;-64
2021/05/06 02:22:51;;;;;;;6.50;2.50;;;4.80;99.90;;;;;;5045083;28;20056;-64
2021/05/06 02:25:18;;;;;;;5.90;2.97;;;4.80;99.90;;;;;;5045250;28;20086;-64
2021/05/06 02:27:45;;;;;;;6.90;2.90;;;4.90;99.90;;;;;;5046062;28;20581;-64
2021/05/06 02:30:12;;;;;;;9.97;3.60;;;4.90;99.90;;;;;;5047865;28;20795;-64
2021/05/06 02:32:39;;;;;;;4.73;2.43;;;4.90;99.90;;;;;;5044213;28;20051;-64
2021/05/06 02:35:07;;;;;;;5.90;2.90;;;4.90;99.90;;;;;;5044729;28;20094;-64
2021/05/06 02:37:34;;;;;;;6.27;3.03;;;5.00;99.90;;;;;;5040062;28;20088;-64
2021/05/06 02:40:05;;;;;;;9.77;3.10;;;4.90;99.90;;;;;;5038598;28;20864;-64
2021/05/06 02:42:32;;;;;;;11.03;3.37;;;4.80;99.90;;;;;;5043946;28;20049;-64
2021/05/06 02:44:59;;;;;;;6.63;3.03;;;4.90;99.90;;;;;;5042665;28;20048;-64
2021/05/06 02:47:27;;;;;;;8.53;3.00;;;4.90;99.90;;;;;;5043568;28;20098;-63
2021/05/06 02:49:53;;;;;;;6.17;2.70;;;5.00;99.90;;;;;;5040534;28;20076;-64
2021/05/06 02:52:25;;;;;;;6.33;2.87;;;5.00;99.90;;;;;;5042185;28;20044;-63
2021/05/06 02:54:57;;;;;;;5.87;3.03;;;5.00;99.90;;;;;;5039180;28;20048;-64
2021/05/06 02:57:28;;;;;;;9.13;3.77;;;5.00;99.90;;;;;;5039951;28;20059;-64
2021/05/06 03:05:28;;;;;;;7.47;3.27;;;5.00;99.90;;;;;;5045707;28;20092;-64
2021/05/06 03:08:03;;;;;;;9.03;3.50;;;5.00;99.90;;;;;;5041079;28;20053;-64
2021/05/06 03:10:42;;;;;;;9.93;3.27;;;5.00;99.90;;;;;;5039576;28;20074;-64
2021/05/06 03:22:40;;;;;;;6.63;2.80;;;5.30;99.90;;;;;;5043281;28;20063;-64
2021/05/06 03:24:26;;;;;;;5.83;2.60;;;5.20;99.90;;;;;;5035288;28;20040;-64
2021/05/06 03:26:53;;;;;;;6.93;2.57;;;5.30;99.90;;;;;;5036667;28;20124;-64
2021/05/06 03:29:23;;;;;;;6.33;2.80;;;5.40;99.90;;;;;;5042406;28;20159;-63
2021/05/06 03:34:44;;;;;;;6.40;2.63;;;5.30;99.90;;;;;;5037061;28;20084;-64
2021/05/06 03:42:44;;;;;;;7.40;3.00;;;5.30;99.90;;;;;;5043050;28;20487;-64
2021/05/06 04:18:17;;;;;;;7.93;2.27;;;5.40;99.90;;;;;;5042211;28;20040;-64
2021/05/06 04:26:21;;;;;;;6.63;2.53;;;5.40;99.90;;;;;;5035253;28;20138;-64
2021/05/06 04:36:57;;;;;;;8.67;2.60;;;5.40;99.90;;;;;;5036838;28;20051;-65
2021/05/06 04:42:35;;;;;;;7.37;2.70;;;5.50;99.90;;;;;;5042694;28;20048;-64
2021/05/06 04:53:32;;;;;;;7.70;2.50;;;5.60;99.90;;;;;;5037450;28;20105;-64
2021/05/06 04:56:07;;;;;;;7.73;2.50;;;5.70;99.90;;;;;;5044201;28;20083;-64
2021/05/06 05:04:08;;;;;;;9.80;3.13;;;5.60;99.90;;;;;;5039713;28;20051;-64
2021/05/06 05:06:38;;;;;;;9.43;3.03;;;5.60;99.90;;;;;;5041318;28;20133;-64
2021/05/06 05:09:18;;;;;;;7.97;2.30;;;5.70;99.90;;;;;;5040199;28;20063;-64
2021/05/06 05:11:51;;;;;;;9.23;2.57;;;5.70;99.90;;;;;;5040531;28;20408;-64
2021/05/06 05:14:42;;;;;;;7.77;2.70;;;5.80;99.90;;;;;;5046079;28;20071;-64
2021/05/06 05:20:02;;;;;;;7.10;2.73;;;5.90;99.90;;;;;;5059875;28;20051;-64
2021/05/06 05:25:27;;;;;;;7.67;3.00;;;6.10;99.90;;;;;;5029724;28;20076;-65
2021/05/06 05:27:57;;;;;;;9.07;2.77;;;6.20;99.90;;;;;;5050603;28;20052;-64
2021/05/06 05:30:25;;;;;;;10.07;2.93;;;6.40;99.90;;;;;;5054474;28;20040;-65
2021/05/06 05:32:52;;;;;;;5.87;2.30;;;6.40;99.90;;;;;;5056439;28;20049;-64
2021/05/06 05:35:28;;;;;;;8.13;2.40;;;6.50;99.90;;;;;;5054402;28;20496;-64
2021/05/06 05:38:04;;;;;;;9.63;2.60;;;6.60;99.90;;;;;;5052365;28;20067;-64
2021/05/06 05:40:37;;;;;;;9.00;2.35;;;6.70;99.90;;;;;;5055897;28;20063;-64
2021/05/06 05:43:12;;;;;;;6.63;2.50;;;6.70;99.90;;;;;;5056529;28;20152;-64
2021/05/06 05:56:38;;;;;;;6.67;2.10;;;7.10;99.90;;;;;;5022805;28;20575;-67
2021/05/06 05:59:05;;;;;;;6.13;1.80;;;7.10;99.90;;;;;;5032692;28;20059;-71
2021/05/06 06:01:35;;;;;;;7.73;2.30;;;7.20;99.90;;;;;;5038917;28;20102;-75
2021/05/06 06:04:01;;;;;;;7.17;2.17;;;7.10;99.90;;;;;;5043383;28;20131;-77
2021/05/06 06:06:28;;;;;;;6.60;2.20;;;7.10;99.90;;;;;;5042512;28;20113;-72
2021/05/06 06:08:55;;;;;;;5.23;2.67;;;7.10;99.90;;;;;;5040348;28;20047;-72
2021/05/06 06:11:21;;;;;;;5.17;2.00;;;7.10;99.90;;;;;;5038733;28;20076;-72
2021/05/06 06:13:50;;;;;;;5.43;2.07;;;7.10;99.90;;;;;;5038172;28;20391;-72
2021/05/06 06:16:22;;;;;;;5.57;2.20;;;7.20;99.90;;;;;;5040476;28;20260;-71
2021/05/06 06:18:51;;;;;;;8.07;2.60;;;7.40;99.90;;;;;;5038456;28;20052;-69
2021/05/06 06:21:21;;;;;;;6.97;2.17;;;7.40;99.90;;;;;;5043051;28;20945;-72
2021/05/06 06:23:48;;;;;;;6.07;2.27;;;7.50;99.90;;;;;;5038721;28;20966;-73
2021/05/06 06:26:15;;;;;;;6.25;2.17;;;7.50;99.90;;;;;;5041052;28;20047;-71
2021/05/06 06:28:43;;;;;;;5.60;2.35;;;7.50;99.90;;;;;;5038888;28;20819;-71
2021/05/06 06:31:15;;;;;;;6.47;2.00;;;7.50;99.90;;;;;;5037375;28;20045;-71
2021/05/06 06:33:42;;;;;;;9.77;2.10;;;7.40;99.90;;;;;;5041954;28;20417;-71
2021/05/06 06:36:09;;;;;;;5.97;1.87;;;7.50;99.90;;;;;;5041704;28;20048;-71
2021/05/06 06:38:36;;;;;;;5.17;2.07;;;7.50;99.90;;;;;;5039939;28;21534;-70
2021/05/06 06:41:05;;;;;;;6.00;1.77;;;7.40;99.90;;;;;;5040442;28;21012;-66
2021/05/06 06:43:32;;;;;;;6.00;1.90;;;7.50;99.90;;;;;;5038631;28;20102;-66
2021/05/06 06:45:59;;;;;;;10.53;2.90;;;7.50;99.90;;;;;;5042622;28;20126;-66
2021/05/06 06:48:25;;;;;;;8.63;2.40;;;7.60;99.90;;;;;;5045179;28;20044;-69
2021/05/06 06:50:53;;;;;;;8.50;2.03;;;7.60;99.90;;;;;;5039673;28;20040;-69
2021/05/06 06:53:19;;;;;;;6.20;2.00;;;7.60;99.90;;;;;;5039511;28;20048;-68
2021/05/06 06:55:46;;;;;;;6.33;1.93;;;7.60;99.90;;;;;;5039411;28;20247;-68
2021/05/06 06:58:14;;;;;;;5.63;2.30;;;7.50;99.90;;;;;;5037316;28;20047;-68
2021/05/06 07:00:41;;;;;;;4.90;1.67;;;7.60;99.90;;;;;;5038945;28;20168;-68
2021/05/06 07:03:08;;;;;;;2.47;0.93;;;7.60;99.90;;;;;;5041172;28;20052;-68
2021/05/06 07:05:35;;;;;;;6.77;1.87;;;7.30;99.90;;;;;;5040301;28;20088;-68
2021/05/06 07:08:13;;;;;;;3.57;1.33;;;7.30;99.90;;;;;;5036618;28;20052;-67
2021/05/06 07:10:40;;;;;;;5.90;1.30;;;7.20;99.90;;;;;;5040363;28;20044;-68
2021/05/06 07:13:07;;;;;;;5.10;1.37;;;7.20;99.90;;;;;;5039381;28;20059;-65
2021/05/06 07:15:34;;;;;;;4.30;1.67;;;7.10;99.90;;;;;;5039617;28;20048;-70
2021/05/06 07:18:00;;;;;;;6.43;1.90;;;7.10;99.90;;;;;;5039111;28;20055;-68
2021/05/06 07:20:27;;;;;;;6.93;1.70;;;6.90;99.90;;;;;;5035251;28;20048;-70
2021/05/06 07:22:54;;;;;;;2.93;1.43;;;6.90;99.90;;;;;;5038480;28;20101;-69
2021/05/06 07:25:21;;;;;;;4.43;1.73;;;6.90;99.90;;;;;;5040068;28;20052;-69
2021/05/06 07:27:48;;;;;;;6.37;2.10;;;6.70;99.90;;;;;;5040386;28;20060;-69
2021/05/06 07:30:15;;;;;;;6.07;1.80;;;6.50;99.90;;;;;;5040899;28;20123;-67
2021/05/06 07:32:44;;;;;;;8.00;2.03;;;6.40;99.90;;;;;;5038839;28;20052;-68
2021/05/06 07:35:12;;;;;;;5.97;1.80;;;6.30;99.90;;;;;;5036649;28;20090;-67
2021/05/06 07:37:39;;;;;;;4.60;1.90;;;6.30;99.90;;;;;;5037114;28;20056;-68
2021/05/06 07:40:06;;;;;;;7.07;2.00;;;6.20;99.90;;;;;;5037790;28;20405;-68
2021/05/06 07:42:34;;;;;;;9.67;2.50;;;6.20;99.90;;;;;;5039924;28;20068;-67
2021/05/06 07:45:00;;;;;;;7.73;2.50;;;6.30;99.90;;;;;;5039331;28;20047;-67
2021/05/06 07:47:27;;;;;;;5.93;2.23;;;6.20;99.90;;;;;;5039475;28;20052;-67
2021/05/06 07:49:53;;;;;;;8.60;2.23;;;6.20;99.90;;;;;;5035139;28;21640;-67
2021/05/06 07:52:21;;;;;;;11.60;2.47;;;6.00;99.90;;;;;;5043536;28;20135;-68
2021/05/06 07:54:48;;;;;;;7.63;2.73;;;6.10;99.90;;;;;;5036423;28;20066;-68
2021/05/06 07:57:15;;;;;;;6.93;2.40;;;6.20;99.90;;;;;;5038583;28;20058;-68
2021/05/06 07:59:43;;;;;;;6.93;2.40;;;6.30;99.90;;;;;;5037379;28;20971;-67
2021/05/06 08:02:10;;;;;;;6.57;2.00;;;6.20;99.90;;;;;;5036073;28;20059;-67
2021/05/06 08:04:37;;;;;;;7.00;2.63;;;6.30;99.90;;;;;;5038783;28;20056;-67
2021/05/06 08:07:10;;;;;;;7.37;2.60;;;6.20;99.90;;;;;;5036844;28;20505;-68
2021/05/06 08:09:36;;;;;;;6.83;2.30;;;6.30;99.90;;;;;;5039950;28;20088;-65
2021/05/06 08:12:04;;;;;;;6.57;2.30;;;6.00;99.90;;;;;;5037895;28;20058;-65
2021/05/06 08:14:31;;;;;;;7.63;2.40;;;6.00;99.90;;;;;;5043295;28;20091;-64
2021/05/06 08:16:58;;;;;;;9.27;3.20;;;5.90;99.90;;;;;;5037388;28;20051;-65
2021/05/06 08:19:25;;;;;;;5.60;2.33;;;5.90;99.90;;;;;;5038074;28;20128;-64
2021/05/06 08:21:51;;;;;;;5.83;2.50;;;5.90;99.90;;;;;;5038315;28;20075;-64
2021/05/06 08:24:18;;;;;;;6.60;2.90;;;6.00;99.90;;;;;;5041202;28;20615;-65
2021/05/06 08:26:44;;;;;;;7.17;2.80;;;6.10;99.90;;;;;;5042168;28;20092;-64
2021/05/06 08:29:11;;;;;;;8.03;2.20;;;6.10;99.90;;;;;;5035318;28;20335;-65
2021/05/06 08:31:37;;;;;;;5.23;2.00;;;6.00;99.90;;;;;;5037242;28;20066;-65
2021/05/06 08:34:05;;;;;;;6.37;2.27;;;6.00;99.90;;;;;;5041392;28;20107;-64
2021/05/06 08:36:31;;;;;;;9.43;2.80;;;6.00;99.90;;;;;;5040723;28;20097;-64
2021/05/06 08:38:58;;;;;;;6.90;2.10;;;6.10;99.90;;;;;;5040079;28;20080;-65
2021/05/06 08:41:25;;;;;;;6.13;2.07;;;6.10;99.90;;;;;;5038706;28;20515;-65
2021/05/06 08:43:56;;;;;;;5.93;2.60;;;6.10;99.90;;;;;;5037846;28;20064;-65
2021/05/06 08:46:23;;;;;;;6.50;2.10;;;6.20;99.90;;;;;;5037458;28;20082;-65
2021/05/06 08:48:49;;;;;;;7.47;2.50;;;5.90;99.90;;;;;;5038570;28;20141;-65
2021/05/06 08:51:18;;;;;;;4.90;1.83;;;5.80;99.90;;;;;;5042376;28;20075;-65
2021/05/06 08:53:45;;;;;;;6.27;2.33;;;5.90;99.90;;;;;;5036055;28;20043;-65
2021/05/06 08:56:11;;;;;;;8.20;1.87;;;5.80;99.90;;;;;;5039026;28;20048;-65
2021/05/06 08:58:37;;;;;;;;;;;5.80;99.90;;;;;;5043347;28;20465;-65
2021/05/06 09:01:04;;;;;;;4.43;1.90;;;5.80;99.90;;;;;;5042781;28;19971;-65
2021/05/06 09:03:31;;;;;;;5.17;2.20;;;5.70;99.90;;;;;;5041506;28;20079;-65
2021/05/06 09:06:15;;;;;;;4.77;1.90;;;5.70;99.90;;;;;;5044934;28;20050;-66
2021/05/06 09:08:44;;;;;;;6.80;2.63;;;5.80;99.90;;;;;;5040997;28;20424;-65
2021/05/06 09:11:12;;;;;;;5.37;2.43;;;5.90;99.90;;;;;;5042569;28;20054;-65
2021/05/06 09:13:39;;;;;;;4.37;1.80;;;5.90;99.90;;;;;;5041117;28;20421;-65
2021/05/06 09:16:06;;;;;;;5.80;1.80;;;5.80;99.90;;;;;;5041029;28;20315;-65
2021/05/06 09:18:37;;;;;;;5.10;2.07;;;5.70;99.90;;;;;;5037562;28;20462;-65
2021/05/06 09:21:06;;;;;;;3.20;1.63;;;5.60;99.90;;;;;;5041635;28;20314;-66
2021/05/06 09:23:33;;;;;;;5.37;1.87;;;5.50;99.90;;;;;;5042564;28;20792;-65
2021/05/06 09:26:05;;;;;;;7.30;2.20;;;5.40;99.90;;;;;;5041131;28;20067;-71
2021/05/06 09:28:33;;;;;;;4.17;1.70;;;5.40;99.90;;;;;;5040356;28;20086;-71
2021/05/06 09:31:02;;;;;;;5.93;2.03;;;5.40;99.90;;;;;;5040630;28;20484;-71
2021/05/06 09:33:31;;;;;;;7.73;2.60;;;5.40;99.90;;;;;;5040655;28;20143;-70
2021/05/06 09:35:58;;;;;;;5.17;2.07;;;5.40;99.90;;;;;;5038757;28;20130;-70
2021/05/06 09:38:32;;;;;;;3.63;1.90;;;5.60;99.90;;;;;;5041017;28;20043;-65
2021/05/06 09:41:01;;;;;;;7.67;2.60;;;5.60;99.90;;;;;;5039856;28;20072;-67
2021/05/06 09:43:31;;;;;;;10.10;2.17;;;5.70;99.90;;;;;;5044483;28;20060;-68
2021/05/06 09:45:59;;;;;;;6.97;2.37;;;5.70;99.90;;;;;;5043529;28;20151;-66
2021/05/06 09:48:27;;;;;;;4.43;1.77;;;5.60;99.90;;;;;;5039499;28;20156;-65
2021/05/06 09:50:59;;;;;;;5.57;2.17;;;5.50;99.90;;;;;;5038163;28;20049;-65
2021/05/06 09:53:25;;;;;;;7.37;3.43;;;5.50;99.90;;;;;;5030504;28;20523;-65
2021/05/06 09:55:56;;;;;;;5.03;2.20;;;5.50;99.90;;;;;;5041870;28;21711;-66
2021/05/06 09:58:25;;;;;;;9.40;2.43;;;5.40;99.90;;;;;;5035200;28;20083;-66
2021/05/06 10:00:54;;;;;;;4.77;2.27;;;5.50;99.90;;;;;;5044143;28;20094;-66
2021/05/06 10:03:22;;;;;;;8.13;2.30;;;5.50;99.90;;;;;;5041632;28;20057;-66
2021/05/06 10:05:50;;;;;;;7.97;2.73;;;5.60;99.90;;;;;;5043283;28;20067;-66
2021/05/06 10:08:18;;;;;;;5.97;2.53;;;5.70;99.90;;;;;;5043032;28;20499;-67
2021/05/06 10:10:45;;;;;;;4.67;1.93;;;5.80;99.90;;;;;;5042064;28;20742;-66
2021/05/06 10:13:12;;;;;;;5.33;2.50;;;5.80;99.90;;;;;;5036280;28;20229;-66
2021/05/06 10:15:39;;;;;;;14.17;3.37;;;5.80;99.90;;;;;;5040165;28;20092;-66
2021/05/06 10:18:07;;;;;;;5.83;2.27;;;5.90;99.90;;;;;;5044172;28;20105;-67
2021/05/06 10:20:35;;;;;;;8.37;2.77;;;5.90;99.90;;;;;;5041169;28;20060;-66
2021/05/06 10:23:02;;;;;;;5.27;2.27;;;5.90;99.90;;;;;;5042965;28;20056;-66
2021/05/06 10:25:29;;;;;;;8.93;3.17;;;5.80;99.90;;;;;;5042861;28;20056;-66
2021/05/06 10:27:56;;;;;;;10.77;4.10;;;5.80;99.90;;;;;;5037440;28;20067;-66
2021/05/06 10:30:24;;;;;;;10.17;4.57;;;5.80;99.90;;;;;;5040420;28;20043;-66
2021/05/06 10:32:50;;;;;;;5.20;2.60;;;5.70;99.90;;;;;;5041206;28;20122;-66
2021/05/06 10:35:22;;;;;;;7.00;3.17;;;5.80;99.90;;;;;;5043329;28;20684;-66
2021/05/06 10:37:54;;;;;;;7.97;3.13;;;5.80;99.90;;;;;;5040939;28;20052;-66
2021/05/06 10:40:29;;;;;;;5.93;2.93;;;5.90;99.90;;;;;;5040613;28;20055;-66
2021/05/06 10:42:57;;;;;;;10.33;3.10;;;6.10;99.90;;;;;;5045019;28;20047;-66
2021/05/06 10:45:31;;;;;;;8.40;3.03;;;6.10;99.90;;;;;;5039900;28;20482;-66
2021/05/06 10:47:58;;;;;;;7.27;2.43;;;6.20;99.90;;;;;;5039036;28;20048;-66
2021/05/06 10:50:32;;;;;;;6.47;2.33;;;6.40;99.90;;;;;;5042781;28;20048;-66
2021/05/06 10:52:59;;;;;;;6.30;2.60;;;6.40;99.90;;;;;;5043250;28;20083;-66
2021/05/06 10:55:47;;;;;;;9.20;3.83;;;6.40;99.90;;;;;;5042200;28;20055;-67
2021/05/06 10:58:42;;;;;;;6.67;2.70;;;6.50;99.90;;;;;;5041946;28;20497;-66
2021/05/06 11:01:18;;;;;;;6.40;2.70;;;6.60;99.90;;;;;;5044134;28;20048;-66
2021/05/06 11:04:05;;;;;;;8.45;2.70;;;6.70;99.90;;;;;;5052317;28;20051;-67
2021/05/06 11:06:46;;;;;;;6.50;2.30;;;6.80;99.90;;;;;;5049534;28;20076;-67
2021/05/06 11:09:57;;;;;;;8.07;3.00;;;6.90;99.90;;;;;;5044933;28;20109;-67
2021/05/06 11:12:42;;;;;;;6.40;2.60;;;7.00;99.90;;;;;;5043865;28;20562;-67
2021/05/06 11:15:28;;;;;;;6.87;2.80;;;7.20;99.90;;;;;;5042700;28;21507;-67
2021/05/06 11:17:56;;;;;;;7.43;2.63;;;7.30;99.90;;;;;;5039387;28;20468;-67
2021/05/06 11:20:48;;;;;;;8.30;2.83;;;7.30;99.90;;;;;;5049469;28;20059;-67
2021/05/06 11:23:32;;;;;;;9.33;3.03;;;7.30;99.90;;;;;;5038707;28;20052;-67
2021/05/06 11:26:14;;;;;;;7.07;2.27;;;7.10;99.90;;;;;;5043563;28;20052;-67
2021/05/06 11:28:51;;;;;;;10.00;2.70;;;7.10;99.90;;;;;;5039986;28;20721;-66
2021/05/06 11:31:48;;;;;;;6.22;2.45;;;7.40;99.90;;;;;;5043317;28;20055;-67
2021/05/06 11:34:36;;;;;;;6.22;2.15;;;7.60;99.90;;;;;;5045642;28;20043;-66
2021/05/06 11:37:14;;;;;;;6.18;2.00;;;7.50;99.90;;;;;;5040226;28;20059;-67
2021/05/06 11:40:03;;;;;;;6.55;2.40;;;7.50;99.90;;;;;;5042233;28;20055;-67
2021/05/06 11:42:36;;;;;;;5.68;2.00;;;7.80;99.90;;;;;;5042234;28;20178;-67
2021/05/06 11:45:12;;;;;;;6.15;2.33;;;8.10;99.90;;;;;;5041596;28;20058;-68
2021/05/06 11:47:39;;;;;;;6.80;2.67;;;8.70;99.90;;;;;;5037630;28;20516;-67
2021/05/06 11:50:21;;;;;;;7.22;2.60;;;8.90;99.90;;;;;;5042835;28;20083;-67
2021/05/06 11:52:47;;;;;;;7.68;2.90;;;8.80;99.90;;;;;;5039790;28;20475;-67
2021/05/06 11:55:45;;;;;;;9.27;2.85;;;8.70;99.90;;;;;;5042174;28;20064;-67
2021/05/06 11:58:21;;;;;;;6.68;2.65;;;8.80;99.90;;;;;;4977696;28;20120;-67
2021/05/06 12:00:48;;;;;;;6.70;2.60;;;8.70;99.90;;;;;;5030027;28;20079;-67
2021/05/06 12:03:14;;;;;;;5.00;2.55;;;8.80;99.90;;;;;;5041156;28;21428;-67
2021/05/06 12:06:01;;;;;;;;;;;9.10;99.90;;;;;;5039770;28;20072;-67
2021/05/06 12:08:30;;;;;;;5.45;2.20;;;9.40;99.90;;;;;;5032136;28;19967;-67
2021/05/06 12:11:00;;;;;;;8.00;2.47;;;9.20;99.90;;;;;;5043081;28;20101;-67
2021/05/06 12:13:28;;;;;;;8.38;2.55;;;9.30;99.90;;;;;;5036863;28;20102;-68
2021/05/06 12:16:17;;;;;;;5.40;2.17;;;9.60;99.90;;;;;;5039256;28;20059;-67
2021/05/06 12:19:04;;;;;;;5.68;2.10;;;9.30;99.90;;;;;;5032760;28;20063;-68
2021/05/06 12:21:47;;;;;;;8.38;2.55;;;9.10;99.90;;;;;;5040366;28;20201;-67
2021/05/06 12:24:24;;;;;;;3.72;1.88;;;9.30;99.90;;;;;;5040125;28;20051;-67
2021/05/06 12:26:52;;;;;;;5.60;2.58;;;9.10;99.90;;;;;;5039454;28;20477;-67
2021/05/06 12:29:20;;;;;;;5.20;2.22;;;9.10;99.90;;;;;;5038582;28;20059;-67
2021/05/06 12:31:49;;;;;;;4.35;2.22;;;9.40;99.90;;;;;;5037086;28;20048;-67
2021/05/06 12:34:18;;;;;;;5.53;2.20;;;9.60;99.90;;;;;;5038919;28;20549;-68
2021/05/06 12:36:52;;;;;;;6.35;2.08;;;9.70;99.90;;;;;;5041056;28;20065;-67
2021/05/06 12:39:20;;;;;;;6.20;2.10;;;9.80;99.90;;;;;;5045242;28;20068;-67
2021/05/06 12:41:53;;;;;;;4.00;2.10;;;10.00;99.90;;;;;;5039831;28;20052;-67
2021/05/06 12:44:40;;;;;;;4.00;1.90;;;10.00;99.90;;;;;;5044838;28;20090;-67
2021/05/06 12:47:15;;;;;;;6.53;2.40;;;10.60;99.90;;;;;;5033237;28;20050;-67
2021/05/06 12:49:41;;;;;;;4.80;2.50;;;10.70;99.90;;;;;;5041731;28;20059;-66
2021/05/06 12:52:27;;;;;;;6.18;2.80;;;10.40;99.90;;;;;;5046359;28;20324;-68
2021/05/06 12:54:54;;;;;;;6.32;2.35;;;10.10;99.90;;;;;;5042783;28;20480;-67
2021/05/06 12:57:22;;;;;;;7.57;2.72;;;10.00;99.90;;;;;;5041536;28;20084;-66
2021/05/06 12:59:49;;;;;;;5.15;2.70;;;9.90;99.90;;;;;;5043802;28;20455;-66
2021/05/06 13:02:17;;;;;;;5.28;2.60;;;9.80;99.90;;;;;;5042523;28;20056;-66
2021/05/06 13:04:46;;;;;;;6.05;2.95;;;9.80;99.90;;;;;;5041108;28;20048;-67
2021/05/06 13:07:13;;;;;;;5.40;2.83;;;9.70;99.90;;;;;;5041942;28;20063;-66
2021/05/06 13:09:41;;;;;;;5.78;2.97;;;9.50;99.90;;;;;;5041318;28;20417;-67
2021/05/06 13:12:13;;;;;;;5.93;3.08;;;9.50;99.90;;;;;;5038160;28;20044;-66
2021/05/06 13:14:48;;;;;;;7.20;3.13;;;9.50;99.90;;;;;;5041738;28;20037;-66
2021/05/06 13:17:30;;;;;;;9.57;3.10;;;9.50;99.90;;;;;;5038910;28;20486;-66
2021/05/06 13:19:58;;;;;;;8.10;3.05;;;9.30;99.90;;;;;;5042199;28;20045;-67
2021/05/06 13:22:25;;;;;;;7.80;3.85;;;9.10;99.90;;;;;;5042176;28;20087;-67
2021/05/06 13:24:52;;;;;;;7.28;3.38;;;9.20;99.90;;;;;;5042551;28;20048;-66
2021/05/06 13:27:21;;;;;;;8.00;2.90;;;9.20;99.90;;;;;;5038372;28;20058;-66
2021/05/06 13:29:55;;;;;;;7.50;3.13;;;9.00;99.90;;;;;;5041236;28;20043;-66
2021/05/06 13:32:31;;;;;;;8.48;3.58;;;8.90;99.90;;;;;;5039698;28;20047;-67
2021/05/06 13:34:58;;;;;;;9.48;3.88;;;8.70;99.90;;;;;;5040349;28;20048;-67
2021/05/06 13:37:33;;;;;;;;;;;8.60;99.90;;;;;;5037303;28;20056;-67
2021/05/06 13:39:59;;;;;;;8.55;4.22;;;8.60;99.90;;;;;;5040086;28;19931;-67
2021/05/06 13:42:26;;;;;;;10.73;4.10;;;8.60;99.90;;;;;;5042912;28;20051;-67
2021/05/06 13:44:56;;;;;;;9.90;3.80;;;8.70;99.90;;;;;;5040753;28;20060;-67
2021/05/06 13:47:25;;;;;;;10.60;4.32;;;8.80;99.90;;;;;;5039815;28;20052;-68
2021/05/06 13:49:51;;;;;;;9.63;5.15;;;8.80;99.90;;;;;;5039180;28;20058;-67
2021/05/06 13:52:19;;;;;;;12.13;4.85;;;8.80;99.90;;;;;;5040573;28;20064;-67
2021/05/06 13:54:46;;;;;;;7.82;4.30;;;8.80;99.90;;;;;;5039089;28;20052;-67
2021/05/06 13:57:13;;;;;;;10.02;4.63;;;8.90;99.90;;;;;;5041337;28;20052;-67
2021/05/06 13:59:39;;;;;;;9.60;5.13;;;8.80;99.90;;;;;;5041521;28;20056;-67
2021/05/06 14:02:08;;;;;;;10.32;5.32;;;8.70;99.90;;;;;;5039888;28;20565;-69
2021/05/06 14:04:35;;;;;;;10.63;5.43;;;8.60;99.90;;;;;;5042510;28;20084;-67
2021/05/06 14:07:01;;;;;;;13.07;6.13;;;8.50;99.90;;;;;;5038276;28;20052;-67
2021/05/06 14:09:28;;;;;;;9.73;5.95;;;8.50;99.90;;;;;;5040989;28;20059;-67
2021/05/06 14:11:55;;;;;;;11.07;6.60;;;8.50;99.90;;;;;;5043225;28;20044;-67
2021/05/06 14:14:22;;;;;;;12.55;5.60;;;8.40;99.90;;;;;;5042274;28;20057;-67
2021/05/06 14:16:49;;;;;;;10.57;5.97;;;8.20;99.90;;;;;;5037568;28;20083;-67
2021/05/06 14:19:17;;;;;;;13.13;6.85;;;8.20;99.90;;;;;;5038767;28;20048;-67
2021/05/06 14:21:46;;;;;;;10.27;5.97;;;8.20;99.90;;;;;;5041599;28;20079;-67
2021/05/06 14:24:14;;;;;;;12.23;6.28;;;8.10;99.90;;;;;;5040928;28;20105;-67
2021/05/06 14:26:41;;;;;;;15.57;7.13;;;8.20;99.90;;;;;;5038156;28;20052;-67
2021/05/06 14:29:08;;;;;;;13.38;6.53;;;8.10;99.90;;;;;;5037654;28;20051;-66
2021/05/06 14:31:35;;;;;;;13.85;6.63;;;8.30;99.90;;;;;;5047363;28;20056;-67
2021/05/06 14:34:01;;;;;;;15.10;8.10;;;8.20;99.90;;;;;;5048160;28;20097;-66
2021/05/06 14:36:29;;;;;;;17.20;7.93;;;8.40;99.90;;;;;;5046367;28;20048;-66
2021/05/06 14:38:58;;;;;;;13.80;6.28;;;8.40;99.90;;;;;;5049676;28;20711;-66
2021/05/06 14:41:25;;;;;;;15.55;7.13;;;8.30;99.90;;;;;;5049386;28;20048;-67
2021/05/06 14:43:52;;;;;;;16.92;7.93;;;8.20;99.90;;;;;;5057757;28;20505;-66
2021/05/06 14:46:21;;;;;;;13.95;7.45;;;8.30;99.90;;;;;;5055845;28;20055;-67
2021/05/06 14:48:48;;;;;;;16.23;8.57;;;8.30;99.90;;;;;;5054443;28;20634;-67
2021/05/06 14:51:15;;;;;;;17.58;8.45;;;8.40;99.90;;;;;;5049968;28;20141;-68
2021/05/06 14:53:43;;;;;;;17.73;8.15;;;8.40;99.90;;;;;;5043797;28;20063;-68
2021/05/06 14:56:09;;;;;;;15.82;8.48;;;8.40;99.90;;;;;;5043888;28;20056;-68
2021/05/06 14:58:36;;;;;;;14.77;8.40;;;8.50;99.90;;;;;;5045088;28;20075;-69
2021/05/06 15:01:03;;;;;;;13.57;7.40;;;8.50;99.90;;;;;;5042327;28;20111;-67
2021/05/06 15:03:30;;;;;;;18.27;8.18;;;8.60;99.90;;;;;;5048496;28;20588;-65
2021/05/06 15:05:56;;;;;;;16.52;8.95;;;8.50;99.90;;;;;;5041947;28;20048;-67
2021/05/06 15:08:23;;;;;;;17.25;9.77;;;8.60;99.90;;;;;;5037848;28;20807;-67
2021/05/06 15:10:51;;;;;;;17.92;10.18;;;8.70;99.90;;;;;;5043118;28;20083;-67
2021/05/06 15:13:17;;;;;;;21.52;11.38;;;8.70;99.90;;;;;;5038540;28;20087;-68
2021/05/06 15:15:44;;;;;;;25.23;13.18;;;8.70;99.90;;;;;;5051924;28;20382;-65
2021/05/06 15:18:10;;;;;;;;;;;8.80;99.90;;;;;;5052647;28;20122;-64
2021/05/06 15:20:37;;;;;;;19.48;10.48;;;8.90;99.90;;;;;;5050919;28;20359;-65
2021/05/06 15:23:03;;;;;;;;;;;8.90;99.90;;;;;;5053134;28;20052;-66
2021/05/06 15:25:30;;;;;;;18.95;10.35;;;9.00;99.90;;;;;;5051396;28;19978;-65
2021/05/06 15:27:58;;;;;;;16.50;9.48;;;9.00;99.90;;;;;;5050461;28;20048;-67
2021/05/06 15:30:25;;;;;;;20.77;11.10;;;8.90;99.90;;;;;;5055245;28;21864;-67
2021/05/06 15:32:51;;;;;;;22.70;11.80;;;9.00;99.90;;;;;;5054643;28;20945;-66
2021/05/06 15:35:18;;;;;;;21.92;12.27;;;8.90;99.90;;;;;;5055431;28;20056;-66
2021/05/06 15:37:45;;;;;;;20.42;10.77;;;9.00;99.90;;;;;;5054390;28;20056;-66
2021/05/06 15:40:16;;;;;;;18.33;10.27;;;9.00;99.90;;;;;;5057579;28;20052;-66
2021/05/06 15:42:43;;;;;;;22.45;11.68;;;9.00;99.90;;;;;;5056780;28;20198;-68
2021/05/06 15:45:11;;;;;;;20.27;11.10;;;9.00;99.90;;;;;;5057763;28;20169;-68
2021/05/06 15:47:38;;;;;;;21.20;12.15;;;9.00;99.90;;;;;;5058183;28;20070;-68
2021/05/06 15:50:07;;;;;;;21.48;12.10;;;9.00;99.90;;;;;;5055225;28;20064;-68
2021/05/06 15:52:34;;;;;;;18.45;11.30;;;9.10;99.90;;;;;;5057171;28;20413;-67